createdAt,value
2023-01-01T00:02:46.105Z,10.50
2023-01-01T00:07:47.581Z,10.48
2023-01-01T00:12:49.116Z,10.61
2023-01-01T00:17:50.554Z,10.57
2023-01-01T00:22:54.977Z,10.69
2023-01-01T00:27:57.510Z,10.79
2023-01-01T00:32:59.129Z,10.74
2023-01-01T00:38:00.865Z,10.83
2023-01-01T00:43:02.565Z,10.85
2023-01-01T00:48:04.328Z,10.94
2023-01-01T00:53:05.845Z,10.90
2023-01-01T00:58:07.422Z,11.02
2023-01-01T01:03:11.562Z,11.06
2023-01-01T01:08:13.218Z,11.15
2023-01-01T01:13:14.679Z,11.17
2023-01-01T01:18:16.597Z,11.38
2023-01-01T01:23:18.711Z,11.34
2023-01-01T01:28:20.284Z,11.34
2023-01-01T01:33:21.764Z,11.41
2023-01-01T01:38:23.415Z,11.42
2023-01-01T01:43:33.716Z,11.34
2023-01-01T01:48:42.460Z,11.41
2023-01-01T01:53:52.178Z,11.30
2023-01-01T01:58:53.702Z,11.30
2023-01-01T02:04:00.324Z,11.16
2023-01-01T02:09:04.870Z,11.25
2023-01-01T02:14:06.875Z,11.37
2023-01-01T02:19:23.584Z,11.42
2023-01-01T02:24:43.611Z,11.60
2023-01-01T02:30:12.032Z,11.44
2023-01-01T02:35:19.149Z,11.38
2023-01-01T02:40:23.685Z,11.49
2023-01-01T02:45:25.353Z,11.44
2023-01-01T02:50:29.274Z,11.30
2023-01-01T02:55:47.631Z,11.30
2023-01-01T03:00:50.854Z,11.16
2023-01-01T03:05:58.531Z,11.14
2023-01-01T03:11:09.174Z,11.07
2023-01-01T03:16:45.868Z,10.99
2023-01-01T03:21:57.910Z,10.98
2023-01-01T03:27:04.400Z,11.03
2023-01-01T03:32:09.105Z,10.97
2023-01-01T03:37:15.930Z,10.91
2023-01-01T03:42:51.994Z,10.82
2023-01-01T03:47:55.152Z,10.86
2023-01-01T03:53:10.308Z,10.93
2023-01-01T03:58:17.608Z,10.91
2023-01-01T04:03:27.220Z,10.91
2023-01-01T04:08:28.742Z,11.01
2023-01-01T04:13:30.231Z,11.20
2023-01-01T04:18:31.735Z,11.13
2023-01-01T04:23:33.312Z,11.05
2023-01-01T04:28:34.802Z,11.26
2023-01-01T04:33:36.412Z,11.15
2023-01-01T04:38:38.471Z,11.05
2023-01-01T04:43:39.936Z,10.97
2023-01-01T04:48:41.413Z,10.90
2023-01-01T04:53:43.096Z,10.84
2023-01-01T04:58:45.518Z,10.87
2023-01-01T05:03:48.279Z,10.77
2023-01-01T05:08:51.080Z,10.86
2023-01-01T05:13:54.573Z,10.82
2023-01-01T05:18:56.601Z,10.74
2023-01-01T05:24:00.825Z,10.79
2023-01-01T05:29:02.531Z,10.80
2023-01-01T05:39:07.288Z,10.85
2023-01-01T05:44:09.316Z,10.88
2023-01-01T05:49:11.900Z,10.83
2023-01-01T05:59:14.209Z,10.82
2023-01-01T06:04:15.883Z,10.89
2023-01-01T06:09:17.340Z,10.87
2023-01-01T06:14:18.934Z,10.87
2023-01-01T06:19:20.387Z,10.87
2023-01-01T06:24:23.015Z,10.82
2023-01-01T06:29:24.483Z,10.90
2023-01-01T06:34:25.931Z,10.82
2023-01-01T06:39:27.810Z,10.85
2023-01-01T06:44:29.311Z,10.86
2023-01-01T06:49:30.911Z,10.74
2023-01-01T06:54:32.445Z,10.81
2023-01-01T06:59:34.030Z,10.87
2023-01-01T07:04:35.567Z,10.85
2023-01-01T07:09:37.077Z,10.82
2023-01-01T07:14:38.664Z,10.78
2023-01-01T07:19:40.101Z,10.81
2023-01-01T07:24:41.575Z,10.84
2023-01-01T07:29:43.122Z,10.76
2023-01-01T07:34:50.270Z,10.80
2023-01-01T07:39:52.845Z,10.78
2023-01-01T07:44:54.368Z,10.73
2023-01-01T07:49:56.050Z,10.68
2023-01-01T07:54:57.705Z,10.72
2023-01-01T07:59:59.265Z,10.69
2023-01-01T08:05:00.755Z,10.88
2023-01-01T08:10:03.702Z,10.93
2023-01-01T08:15:06.116Z,11.01
2023-01-01T08:20:08.443Z,11.12
2023-01-01T08:25:09.848Z,11.22
2023-01-01T08:30:14.011Z,11.19
2023-01-01T08:35:15.618Z,11.29
2023-01-01T08:40:17.077Z,11.36
2023-01-01T08:45:18.698Z,11.53
2023-01-01T08:50:20.341Z,11.59
2023-01-01T08:55:21.911Z,11.62
2023-01-01T09:00:23.439Z,11.55
2023-01-01T09:05:25.047Z,11.56
2023-01-01T09:10:26.668Z,11.61
2023-01-01T09:15:28.685Z,11.69
2023-01-01T09:20:30.510Z,11.70
2023-01-01T09:25:32.639Z,11.78
2023-01-01T09:30:35.150Z,11.77
2023-01-01T09:35:36.629Z,11.79
2023-01-01T09:41:00.246Z,11.75
2023-01-01T09:46:07.873Z,11.76
2023-01-01T09:51:16.031Z,11.82
2023-01-01T09:56:21.904Z,11.76
2023-01-01T10:01:49.396Z,11.82
2023-01-01T10:07:29.093Z,11.83
2023-01-01T10:13:06.155Z,11.89
2023-01-01T10:18:17.933Z,11.84
2023-01-01T10:23:23.661Z,11.84
2023-01-01T10:28:34.906Z,11.84
2023-01-01T10:33:36.485Z,11.89
2023-01-01T10:38:39.294Z,11.91
2023-01-01T10:43:40.723Z,11.93
2023-01-01T10:49:03.990Z,11.91
2023-01-01T10:54:31.119Z,11.94
2023-01-01T10:59:39.247Z,11.94
2023-01-01T11:04:40.883Z,11.95
2023-01-01T11:09:52.180Z,11.95
2023-01-01T11:15:05.701Z,12.05
2023-01-01T11:20:07.592Z,12.07
2023-01-01T11:25:21.467Z,11.99
2023-01-01T11:30:28.561Z,12.00
2023-01-01T11:35:51.128Z,11.97
2023-01-01T11:40:55.452Z,12.03
2023-01-01T11:45:58.709Z,12.00
2023-01-01T11:51:03.347Z,12.12
2023-01-01T11:56:13.051Z,12.07
2023-01-01T12:01:29.273Z,12.14
2023-01-01T12:06:37.774Z,12.19
2023-01-01T12:11:48.304Z,12.39
2023-01-01T12:16:55.120Z,12.45
2023-01-01T12:21:59.835Z,12.47
2023-01-01T12:27:16.457Z,12.53
2023-01-01T12:32:47.133Z,12.40
2023-01-01T12:38:16.566Z,12.29
2023-01-01T12:43:33.798Z,12.27
2023-01-01T12:48:35.237Z,12.21
2023-01-01T12:53:36.810Z,12.17
2023-01-01T12:58:43.794Z,12.16
2023-01-01T13:04:10.598Z,12.23
2023-01-01T13:09:21.630Z,12.12
2023-01-01T13:14:23.287Z,12.15
2023-01-01T13:19:32.768Z,12.18
2023-01-01T13:24:34.304Z,12.19
2023-01-01T13:29:43.957Z,12.20
2023-01-01T13:35:02.211Z,12.19
2023-01-01T13:40:31.101Z,12.21
2023-01-01T13:46:10.378Z,12.23
2023-01-01T13:51:01.434Z,12.31
2023-01-01T13:56:12.628Z,12.43
2023-01-01T14:01:16.973Z,12.41
2023-01-01T14:06:42.024Z,12.64
2023-01-01T14:11:43.596Z,12.39
2023-01-01T14:16:45.183Z,12.28
2023-01-01T14:21:47.215Z,12.26
2023-01-01T14:26:49.674Z,12.19
2023-01-01T14:31:51.256Z,12.18
2023-01-01T14:36:55.637Z,12.15
2023-01-01T14:42:06.779Z,12.39
2023-01-01T14:47:25.501Z,12.27
2023-01-01T14:52:29.634Z,12.33
2023-01-01T14:57:37.244Z,12.32
2023-01-01T15:02:40.111Z,12.25
2023-01-01T15:07:41.733Z,12.16
2023-01-01T15:12:43.376Z,12.19
2023-01-01T15:17:47.749Z,12.18
2023-01-01T15:22:50.893Z,12.29
2023-01-01T15:27:54.968Z,12.31
2023-01-01T15:33:05.454Z,12.20
2023-01-01T15:38:24.062Z,12.22
2023-01-01T15:43:28.006Z,12.27
2023-01-01T15:48:36.069Z,12.17
2023-01-01T15:53:50.450Z,12.17
2023-01-01T15:59:03.737Z,12.15
2023-01-01T16:04:28.802Z,12.17
2023-01-01T16:09:30.919Z,12.15
2023-01-01T16:14:32.470Z,12.04
2023-01-01T16:19:34.994Z,12.11
2023-01-01T16:24:36.550Z,12.10
2023-01-01T16:29:38.398Z,12.09
2023-01-01T16:34:41.006Z,12.15
2023-01-01T16:39:42.623Z,12.13
2023-01-01T16:44:44.338Z,12.14
2023-01-01T16:49:46.263Z,12.10
2023-01-01T16:54:47.848Z,12.12
2023-01-01T16:59:49.367Z,12.07
2023-01-01T17:04:50.902Z,12.06
2023-01-01T17:09:52.361Z,12.05
2023-01-01T17:14:54.068Z,12.14
2023-01-01T17:19:55.585Z,12.08
2023-01-01T17:24:57.137Z,11.97
2023-01-01T17:29:58.686Z,11.99
2023-01-01T17:35:03.263Z,12.00
2023-01-01T17:40:05.236Z,11.98
2023-01-01T17:45:07.697Z,11.93
2023-01-01T17:50:09.449Z,11.84
2023-01-01T17:55:10.900Z,11.91
2023-01-01T18:00:12.875Z,11.92
2023-01-01T18:05:14.635Z,11.85
2023-01-01T18:10:16.226Z,11.76
2023-01-01T18:15:17.684Z,11.70
2023-01-01T18:20:19.446Z,11.65
2023-01-01T18:25:20.947Z,11.53
2023-01-01T18:30:23.115Z,11.45
2023-01-01T18:35:24.803Z,11.42
2023-01-01T18:40:30.739Z,11.37
2023-01-01T18:45:34.454Z,11.29
2023-01-01T18:50:36.056Z,11.30
2023-01-01T18:55:37.509Z,11.34
2023-01-01T19:00:38.998Z,11.35
2023-01-01T19:05:40.721Z,11.30
2023-01-01T19:50:50.125Z,11.27
2023-01-01T19:55:51.702Z,11.42
2023-01-01T20:00:53.288Z,11.44
2023-01-01T20:05:54.829Z,11.47
2023-01-01T20:10:56.632Z,11.51
2023-01-01T20:15:58.244Z,11.58
2023-01-01T20:20:59.836Z,11.56
2023-01-01T20:26:01.495Z,11.44
2023-01-01T20:31:02.962Z,11.42
2023-01-01T20:36:04.769Z,11.48
2023-01-01T20:41:06.345Z,11.47
2023-01-01T20:46:07.908Z,11.40
2023-01-01T20:51:09.514Z,11.41
2023-01-01T20:56:11.003Z,11.56
2023-01-01T21:01:12.928Z,11.58
2023-01-01T21:06:20.021Z,11.62
2023-01-01T21:11:25.471Z,11.66
2023-01-01T21:16:35.854Z,11.76
2023-01-01T21:21:54.771Z,11.81
2023-01-01T21:27:10.741Z,11.87
2023-01-01T21:32:33.287Z,11.87
2023-01-01T21:37:41.759Z,11.92
2023-01-01T21:42:43.260Z,11.92
2023-01-01T21:47:45.135Z,11.99
2023-01-01T21:52:47.720Z,11.97
2023-01-01T21:57:49.523Z,12.00
2023-01-01T22:02:51.183Z,12.02
2023-01-01T22:08:00.017Z,11.99
2023-01-01T22:13:02.055Z,12.05
2023-01-01T22:18:09.793Z,11.96
2023-01-01T22:23:27.556Z,12.01
2023-01-01T22:28:42.416Z,12.03
2023-01-01T22:33:46.537Z,11.99
2023-01-01T22:38:48.237Z,11.99
2023-01-01T22:43:58.072Z,11.97
2023-01-01T22:49:02.623Z,11.97
2023-01-01T22:54:04.600Z,12.00
2023-01-01T22:59:06.191Z,11.89
2023-01-01T23:04:07.675Z,11.84
2023-01-01T23:09:09.347Z,11.90
2023-01-01T23:14:11.035Z,11.89
2023-01-01T23:19:12.523Z,11.87
2023-01-01T23:24:17.042Z,11.88
2023-01-01T23:29:20.205Z,11.92
2023-01-01T23:34:21.856Z,11.93
2023-01-01T23:39:23.361Z,11.89
2023-01-01T23:44:24.897Z,11.82
2023-01-01T23:49:27.471Z,11.83
2023-01-01T23:54:29.604Z,11.68
2023-01-01T23:59:32.271Z,11.77
